createdAt,value
2017-05-15T00:00:27.788Z,11.87
2017-05-15T00:02:57.478Z,14.25
2017-05-15T00:05:27.205Z,16.03
2017-05-15T00:07:56.983Z,13.65
2017-05-15T00:10:27.537Z,13.70
2017-05-15T00:12:57.227Z,14.28
2017-05-15T00:15:26.196Z,15.38
2017-05-15T00:17:55.923Z,14.45
2017-05-15T00:20:25.668Z,13.13
2017-05-15T00:22:55.397Z,11.52
2017-05-15T00:25:24.378Z,14.82
2017-05-15T00:27:54.187Z,13.55
2017-05-15T00:30:23.870Z,17.57
2017-05-15T00:32:53.575Z,12.63
2017-05-15T00:35:23.327Z,11.60
2017-05-15T00:37:52.996Z,11.00
2017-05-15T00:40:22.825Z,12.37
2017-05-15T00:42:52.559Z,11.98
2017-05-15T00:45:22.246Z,12.40
2017-05-15T00:47:51.951Z,12.83
2017-05-15T00:50:21.683Z,13.53
2017-05-15T00:52:51.388Z,14.70
2017-05-15T00:55:21.100Z,12.55
2017-05-15T00:57:50.805Z,11.62
2017-05-15T01:00:20.509Z,13.02
2017-05-15T01:02:50.208Z,17.87
2017-05-15T01:05:19.879Z,13.77
2017-05-15T01:07:49.556Z,13.78
2017-05-15T01:10:19.260Z,13.82
2017-05-15T01:12:48.956Z,18.88
2017-05-15T01:15:18.667Z,15.85
2017-05-15T01:17:48.360Z,16.65
2017-05-15T01:20:18.041Z,13.92
2017-05-15T01:22:47.772Z,15.85
2017-05-15T01:25:17.471Z,15.75
2017-05-15T01:30:26.440Z,18.12
2017-05-15T01:32:56.172Z,17.82
2017-05-15T01:35:26.045Z,15.02
2017-05-15T01:37:55.736Z,16.55
2017-05-15T01:40:25.561Z,13.60
2017-05-15T01:42:55.469Z,16.20
2017-05-15T01:45:25.236Z,17.45
2017-05-15T01:47:55.034Z,15.43
2017-05-15T01:50:24.840Z,14.20
2017-05-15T01:52:54.648Z,15.00
2017-05-15T01:55:24.471Z,18.47
2017-05-15T01:57:54.287Z,15.35
2017-05-15T02:00:24.108Z,16.25
2017-05-15T02:02:53.169Z,17.72
2017-05-15T02:05:22.969Z,18.53
2017-05-15T02:07:52.881Z,17.43
2017-05-15T02:10:22.683Z,18.42
2017-05-15T02:12:51.775Z,19.93
2017-05-15T02:15:21.579Z,18.60
2017-05-15T02:17:51.405Z,19.47
2017-05-15T02:20:21.303Z,18.05
2017-05-15T02:22:50.313Z,18.92
2017-05-15T02:25:20.088Z,23.52
2017-05-15T02:27:49.896Z,20.10
2017-05-15T02:30:19.635Z,19.38
2017-05-15T02:32:49.403Z,21.27
2017-05-15T02:35:19.144Z,21.02
2017-05-15T02:37:48.857Z,25.15
2017-05-15T02:40:18.682Z,25.32
2017-05-15T02:44:07.739Z,20.28
2017-05-15T02:46:37.639Z,19.68
2017-05-15T02:49:07.387Z,19.98
2017-05-15T02:51:37.192Z,21.85
2017-05-15T02:54:06.988Z,20.02
2017-05-15T02:56:36.731Z,19.33
2017-05-15T02:59:05.689Z,21.20
2017-05-15T03:01:34.622Z,23.90
2017-05-15T03:04:04.392Z,22.60
2017-05-15T03:06:34.199Z,22.32
2017-05-15T03:09:04.104Z,21.18
2017-05-15T03:11:33.839Z,23.55
2017-05-15T03:14:03.604Z,25.78
2017-05-15T03:16:33.324Z,25.78
2017-05-15T03:19:03.080Z,22.77
2017-05-15T03:21:32.834Z,21.05
2017-05-15T03:24:02.618Z,22.70
2017-05-15T03:26:32.400Z,24.83
2017-05-15T03:29:02.167Z,22.08
2017-05-15T03:31:31.956Z,24.37
2017-05-15T03:34:01.741Z,31.42
2017-05-15T03:36:31.544Z,21.33
2017-05-15T03:39:00.540Z,24.47
2017-05-15T03:41:30.311Z,23.78
2017-05-15T03:45:19.376Z,24.70
2017-05-15T03:47:49.772Z,23.75
2017-05-15T03:50:19.496Z,23.73
2017-05-15T03:52:49.583Z,25.42
2017-05-15T03:55:19.345Z,25.42
2017-05-15T03:57:49.104Z,23.45
2017-05-15T04:00:18.968Z,26.13
2017-05-15T04:02:48.716Z,27.03
2017-05-15T04:05:18.478Z,27.88
2017-05-15T04:07:47.522Z,30.03
2017-05-15T04:10:17.340Z,24.60
2017-05-15T04:12:47.101Z,27.82
2017-05-15T04:15:16.860Z,23.95
2017-05-15T04:17:46.628Z,25.28
2017-05-15T04:20:16.437Z,21.63
2017-05-15T04:22:45.440Z,23.57
2017-05-15T04:25:15.167Z,19.92
2017-05-15T04:27:44.891Z,18.63
2017-05-15T04:30:14.647Z,17.30
2017-05-15T04:32:44.399Z,22.27
2017-05-15T04:35:14.183Z,19.90
2017-05-15T04:37:44.024Z,17.75
2017-05-15T04:40:13.883Z,20.63
2017-05-15T04:42:43.613Z,21.73
2017-05-15T04:45:13.376Z,20.65
2017-05-15T04:47:43.083Z,20.22
2017-05-15T04:50:13.104Z,18.28
2017-05-15T04:52:42.837Z,20.55
2017-05-15T04:55:12.571Z,19.65
2017-05-15T04:57:42.323Z,19.50
2017-05-15T05:00:12.032Z,22.93
2017-05-15T05:02:41.781Z,19.52
2017-05-15T05:05:11.567Z,22.43
2017-05-15T05:07:41.373Z,20.92
2017-05-15T05:10:11.128Z,20.75
2017-05-15T05:12:40.876Z,21.00
2017-05-15T05:15:10.636Z,20.12
2017-05-15T05:17:40.422Z,19.23
2017-05-15T05:20:10.473Z,21.27
2017-05-15T05:22:42.391Z,19.45
2017-05-15T05:25:12.466Z,23.97
2017-05-15T05:27:46.109Z,20.27
2017-05-15T05:30:16.113Z,20.95
2017-05-15T05:32:54.625Z,23.28
2017-05-15T05:35:24.581Z,21.23
2017-05-15T05:37:55.003Z,23.95
2017-05-15T05:40:25.160Z,22.98
2017-05-15T05:43:01.266Z,21.68
2017-05-15T05:45:31.131Z,23.25
2017-05-15T05:48:00.904Z,20.58
2017-05-15T05:50:30.817Z,23.67
2017-05-15T05:53:01.090Z,21.43
2017-05-15T05:55:40.214Z,20.52
2017-05-15T05:58:15.047Z,24.35
2017-05-15T06:00:53.492Z,20.50
2017-05-15T06:03:32.253Z,21.50
2017-05-15T06:09:19.915Z,24.63
2017-05-15T06:14:03.344Z,20.30
2017-05-15T06:18:55.773Z,18.38
2017-05-15T06:21:24.201Z,16.32
2017-05-15T06:26:05.853Z,16.75
2017-05-15T06:28:35.631Z,15.58
2017-05-15T06:31:05.304Z,14.98
2017-05-15T06:33:34.985Z,16.78
2017-05-15T06:36:04.674Z,13.75
2017-05-15T06:38:43.233Z,18.22
2017-05-15T06:43:19.720Z,13.88
2017-05-15T06:45:49.480Z,15.30
2017-05-15T06:48:19.228Z,13.05
2017-05-15T06:50:48.943Z,12.25
2017-05-15T06:53:17.816Z,12.42
2017-05-15T06:55:47.617Z,10.83
2017-05-15T06:58:17.588Z,13.45
2017-05-15T07:00:47.307Z,11.82
2017-05-15T07:03:17.032Z,10.08
2017-05-15T07:05:46.743Z,10.83
2017-05-15T07:08:15.157Z,10.22
2017-05-15T07:10:44.969Z,8.70
2017-05-15T07:13:14.783Z,7.55
2017-05-15T07:15:44.497Z,7.60
2017-05-15T07:18:14.211Z,6.73
2017-05-15T07:20:43.960Z,6.93
2017-05-15T07:23:13.650Z,6.05
2017-05-15T07:25:43.392Z,5.95
2017-05-15T07:28:13.129Z,6.16
2017-05-15T07:30:42.930Z,4.55
2017-05-15T07:33:12.648Z,3.58
2017-05-15T07:35:42.435Z,4.52
2017-05-15T07:38:12.214Z,3.42
2017-05-15T07:40:41.980Z,4.72
2017-05-15T07:43:11.733Z,3.47
2017-05-15T07:45:40.685Z,5.17
2017-05-15T07:48:10.456Z,3.80
2017-05-15T07:50:40.212Z,3.82
2017-05-15T07:53:10.052Z,5.42
2017-05-15T07:55:39.007Z,4.54
2017-05-15T07:58:08.777Z,3.62
2017-05-15T08:00:40.285Z,4.24
2017-05-15T08:03:10.099Z,4.82
2017-05-15T08:05:40.001Z,20.00
2017-05-15T08:08:09.841Z,4.30
2017-05-15T08:10:39.642Z,3.28
2017-05-15T08:13:09.556Z,3.84
2017-05-15T08:15:39.252Z,4.40
2017-05-15T08:18:08.991Z,4.16
2017-05-15T08:20:38.823Z,5.70
2017-05-15T08:23:08.662Z,3.88
2017-05-15T08:25:38.439Z,5.10
2017-05-15T08:28:08.157Z,3.48
2017-05-15T08:30:37.863Z,3.42
2017-05-15T08:33:07.678Z,4.10
2017-05-15T08:35:37.465Z,3.72
2017-05-15T08:38:06.715Z,3.00
2017-05-15T08:40:36.440Z,3.06
2017-05-15T08:43:06.179Z,3.94
2017-05-15T08:45:35.938Z,3.38
2017-05-15T08:48:05.674Z,5.34
2017-05-15T08:50:35.396Z,4.74
2017-05-15T08:53:05.329Z,3.54
2017-05-15T08:55:35.295Z,2.20
2017-05-15T08:58:05.094Z,5.72
2017-05-15T09:00:34.167Z,3.32
2017-05-15T09:03:03.862Z,3.02
2017-05-15T09:05:33.566Z,5.64
2017-05-15T09:08:03.282Z,3.62
2017-05-15T09:10:33.016Z,1.84
2017-05-15T09:13:02.720Z,2.64
2017-05-15T09:15:32.427Z,3.36
2017-05-15T09:18:32.447Z,1.96
2017-05-15T09:21:02.265Z,2.78
2017-05-15T09:23:32.074Z,1.74
2017-05-15T09:26:01.813Z,2.24
2017-05-15T09:28:31.556Z,2.32
2017-05-15T09:31:01.312Z,1.82
2017-05-15T09:33:31.058Z,1.40
2017-05-15T09:36:00.768Z,2.98
2017-05-15T09:38:30.524Z,2.16
2017-05-15T09:41:00.800Z,3.68
2017-05-15T09:43:30.575Z,3.40
2017-05-15T09:46:00.390Z,1.90
2017-05-15T09:48:30.240Z,1.84
2017-05-15T09:51:01.031Z,2.20
2017-05-15T09:53:33.466Z,6.14
2017-05-15T09:59:14.407Z,2.52
2017-05-15T10:02:16.455Z,3.70
2017-05-15T10:04:56.723Z,3.62
2017-05-15T10:07:30.228Z,1.56
2017-05-15T10:10:00.041Z,2.22
2017-05-15T10:12:45.105Z,2.18
2017-05-15T10:15:30.202Z,2.72
2017-05-15T10:18:00.886Z,2.86
2017-05-15T10:20:35.008Z,1.80
2017-05-15T10:23:10.372Z,3.52
2017-05-15T10:25:43.147Z,2.44
2017-05-15T10:28:21.603Z,2.40
2017-05-15T10:30:58.855Z,4.22
2017-05-15T10:33:31.695Z,2.50
2017-05-15T10:36:11.456Z,2.78
2017-05-15T10:42:19.187Z,1.44
2017-05-15T10:44:56.679Z,2.38
2017-05-15T10:47:26.734Z,2.94
2017-05-15T10:50:11.852Z,2.62
2017-05-15T10:53:21.617Z,1.46
2017-05-15T10:55:51.483Z,2.42
2017-05-15T10:58:21.391Z,3.68
2017-05-15T11:01:03.486Z,1.80
2017-05-15T11:03:37.617Z,1.72
2017-05-15T11:06:17.718Z,2.68
2017-05-15T11:08:53.185Z,5.10
2017-05-15T11:11:24.797Z,1.82
2017-05-15T11:13:54.954Z,2.12
2017-05-15T11:16:24.726Z,1.76
2017-05-15T11:18:54.524Z,2.78
2017-05-15T11:24:08.556Z,1.90
2017-05-15T11:26:38.424Z,2.12
2017-05-15T11:29:09.995Z,4.92
2017-05-15T11:31:43.067Z,1.86
2017-05-15T11:34:13.371Z,3.48
2017-05-15T11:36:43.165Z,2.50
2017-05-15T11:39:13.087Z,2.26
2017-05-15T11:41:44.134Z,3.36
2017-05-15T11:44:21.755Z,3.74
2017-05-15T11:47:16.410Z,1.58
2017-05-15T11:49:46.308Z,2.46
2017-05-15T11:52:16.539Z,1.62
2017-05-15T11:54:57.816Z,3.56
2017-05-15T12:01:12.656Z,4.20
2017-05-15T12:03:43.208Z,2.14
2017-05-15T12:09:15.441Z,3.34
2017-05-15T12:12:54.282Z,1.58
2017-05-15T12:15:24.345Z,1.98
2017-05-15T12:17:54.158Z,3.46
2017-05-15T12:20:33.522Z,2.12
2017-05-15T12:23:09.541Z,1.76
2017-05-15T12:25:39.465Z,4.02
2017-05-15T12:28:09.300Z,2.70
2017-05-15T12:30:49.648Z,2.18
2017-05-15T12:33:20.420Z,2.44
2017-05-15T12:35:49.642Z,2.10
2017-05-15T12:38:18.849Z,3.36
2017-05-15T12:40:52.259Z,3.08
2017-05-15T12:43:49.445Z,4.02
2017-05-15T12:47:21.919Z,3.00
2017-05-15T12:49:52.003Z,5.28
2017-05-15T12:52:31.329Z,1.70
2017-05-15T12:55:01.191Z,3.82
2017-05-15T12:57:31.812Z,3.88
2017-05-15T13:00:01.786Z,2.52
2017-05-15T13:05:11.826Z,2.90
2017-05-15T13:07:57.134Z,2.82
2017-05-15T13:11:19.882Z,2.22
2017-05-15T13:14:07.555Z,2.12
2017-05-15T13:16:37.431Z,2.20
2017-05-15T13:19:07.190Z,1.46
2017-05-15T13:21:37.073Z,3.20
2017-05-15T13:24:06.968Z,1.86
2017-05-15T13:27:01.115Z,1.54
2017-05-15T13:29:31.422Z,1.84
2017-05-15T13:32:02.542Z,3.32
2017-05-15T13:34:32.857Z,1.54
2017-05-15T13:37:02.733Z,1.92
2017-05-15T13:39:33.142Z,2.90
2017-05-15T13:42:03.280Z,2.36
2017-05-15T13:44:33.086Z,2.60
2017-05-15T13:47:03.334Z,1.44
2017-05-15T13:49:35.351Z,2.44
2017-05-15T13:52:30.015Z,2.22
2017-05-15T13:54:59.996Z,3.24
2017-05-15T13:57:31.128Z,2.20
2017-05-15T14:00:01.027Z,4.72
2017-05-15T14:02:32.277Z,2.66
2017-05-15T14:05:02.708Z,2.32
2017-05-15T14:07:34.416Z,2.72
2017-05-15T14:10:04.499Z,4.10
2017-05-15T14:12:34.492Z,6.06
2017-05-15T14:15:05.672Z,3.16
2017-05-15T14:17:44.596Z,1.78
2017-05-15T14:20:14.593Z,3.50
2017-05-15T14:25:29.728Z,3.44
2017-05-15T14:28:02.160Z,2.64
2017-05-15T14:30:35.156Z,3.62
2017-05-15T14:33:09.382Z,2.52
2017-05-15T14:35:57.451Z,4.26
2017-05-15T14:38:27.236Z,2.94
2017-05-15T14:40:56.959Z,3.20
2017-05-15T14:43:26.682Z,2.62
2017-05-15T14:45:57.310Z,3.30
2017-05-15T14:48:27.226Z,2.60
2017-05-15T14:51:10.096Z,4.22
2017-05-15T14:53:47.289Z,3.10
2017-05-15T14:59:13.249Z,3.54
2017-05-15T15:02:08.118Z,2.54
2017-05-15T20:41:15.826Z,3.82
2017-05-15T20:43:45.543Z,2.58
2017-05-15T20:46:15.499Z,3.72
2017-05-15T20:48:46.492Z,3.32
2017-05-15T20:51:16.672Z,5.56
2017-05-15T20:53:46.364Z,2.96
2017-05-15T20:56:16.184Z,3.42
2017-05-15T20:58:46.044Z,4.96
2017-05-15T21:01:15.816Z,3.64
2017-05-15T21:03:45.537Z,2.64
2017-05-15T21:06:15.227Z,3.02
2017-05-15T21:08:44.229Z,3.82
2017-05-15T21:11:14.866Z,5.32
2017-05-15T21:13:44.583Z,3.34
2017-05-15T21:16:14.309Z,2.50
2017-05-15T21:18:44.018Z,2.82
2017-05-15T21:21:13.727Z,4.46
2017-05-15T21:23:43.479Z,4.42
2017-05-15T21:26:13.334Z,3.18
2017-05-15T21:28:43.010Z,3.90
2017-05-15T21:31:12.779Z,3.82
2017-05-15T21:33:42.579Z,2.70
2017-05-15T21:36:12.264Z,2.92
2017-05-15T21:38:42.036Z,3.90
2017-05-15T21:41:11.760Z,4.02
2017-05-15T21:43:41.057Z,2.96
2017-05-15T21:46:10.761Z,3.72
2017-05-15T21:48:39.730Z,3.08
2017-05-15T21:51:09.469Z,3.90
2017-05-15T21:53:39.207Z,4.42
2017-05-15T21:56:08.900Z,3.26
2017-05-15T21:58:38.632Z,5.38
2017-05-15T22:01:08.367Z,3.90
2017-05-15T22:03:38.077Z,5.66
2017-05-15T22:06:07.862Z,5.40
2017-05-15T22:08:38.390Z,3.28
2017-05-15T22:11:08.086Z,2.60
2017-05-15T22:13:37.773Z,3.18
2017-05-15T22:16:07.498Z,4.42
2017-05-15T22:18:37.171Z,3.10
2017-05-15T22:21:06.038Z,3.82
2017-05-15T22:23:35.749Z,5.86
2017-05-15T22:26:05.403Z,3.52
2017-05-15T22:28:35.201Z,3.20
2017-05-15T22:31:04.898Z,5.74
2017-05-15T22:33:34.633Z,4.72
2017-05-15T22:36:04.385Z,5.36
2017-05-15T22:38:34.080Z,5.54
2017-05-15T22:41:03.794Z,4.88
2017-05-15T22:43:32.814Z,2.64
2017-05-15T22:46:02.594Z,2.64
2017-05-15T22:48:32.330Z,3.96
2017-05-15T22:51:01.235Z,3.02
2017-05-15T22:53:30.985Z,4.62
2017-05-15T22:56:00.771Z,4.52
2017-05-15T22:58:30.531Z,8.02
2017-05-15T23:01:00.244Z,3.58
2017-05-15T23:03:29.969Z,5.52
2017-05-15T23:05:59.661Z,4.28
2017-05-15T23:08:29.357Z,4.12
2017-05-15T23:10:59.078Z,3.92
2017-05-15T23:13:28.799Z,4.32
2017-05-15T23:15:58.485Z,4.46
2017-05-15T23:18:28.161Z,5.08
2017-05-15T23:20:57.911Z,6.62
2017-05-15T23:23:27.609Z,4.16
2017-05-15T23:25:57.319Z,3.78
2017-05-15T23:28:27.011Z,3.58
2017-05-15T23:30:56.733Z,5.62
2017-05-15T23:33:26.453Z,4.24
2017-05-15T23:35:56.152Z,7.08
2017-05-15T23:38:25.863Z,3.56
2017-05-15T23:40:55.517Z,4.72
2017-05-15T23:43:25.168Z,4.04
2017-05-15T23:45:54.059Z,3.90
2017-05-15T23:48:24.026Z,4.02
2017-05-15T23:50:53.690Z,7.74
2017-05-15T23:53:23.392Z,4.18
2017-05-15T23:55:53.072Z,3.40
2017-05-15T23:58:22.800Z,5.10
